createdAt,value
2018-03-21T00:01:38.017Z,37.00
2018-03-21T00:04:06.320Z,28.05
2018-03-21T00:06:33.838Z,32.72
2018-03-21T00:09:02.146Z,30.05
2018-03-21T00:11:29.663Z,24.17
2018-03-21T00:13:57.233Z,25.88
2018-03-21T00:16:24.722Z,29.37
2018-03-21T00:18:52.259Z,24.73
2018-03-21T00:21:19.767Z,27.90
2018-03-21T00:23:47.306Z,24.98
2018-03-21T00:26:14.813Z,26.70
2018-03-21T00:28:42.340Z,28.70
2018-03-21T00:31:09.846Z,24.80
2018-03-21T00:33:37.370Z,24.48
2018-03-21T00:36:04.884Z,26.85
2018-03-21T00:38:33.184Z,29.70
2018-03-21T00:41:00.695Z,27.13
2018-03-21T00:43:28.218Z,20.35
2018-03-21T00:45:55.739Z,29.75
2018-03-21T00:48:24.045Z,20.75
2018-03-21T00:50:51.556Z,29.67
2018-03-21T00:53:19.084Z,21.52
2018-03-21T00:55:46.591Z,28.55
2018-03-21T00:58:14.927Z,20.85
2018-03-21T01:00:42.415Z,25.85
2018-03-21T01:03:09.942Z,16.80
2018-03-21T01:05:37.455Z,21.73
2018-03-21T01:08:05.723Z,18.65
2018-03-21T01:10:33.252Z,15.93
2018-03-21T01:13:00.767Z,22.65
2018-03-21T01:15:28.302Z,20.73
2018-03-21T01:17:56.590Z,19.90
2018-03-21T01:20:24.113Z,21.67
2018-03-21T01:22:51.618Z,26.08
2018-03-21T01:25:19.903Z,16.12
2018-03-21T01:27:47.408Z,20.08
2018-03-21T01:30:14.937Z,22.17
2018-03-21T01:32:42.434Z,19.58
2018-03-21T01:35:09.966Z,23.12
2018-03-21T01:37:37.482Z,28.70
2018-03-21T01:40:05.770Z,16.48
2018-03-21T01:42:34.054Z,17.42
2018-03-21T01:45:01.583Z,21.55
2018-03-21T01:47:29.099Z,15.38
2018-03-21T01:49:56.627Z,19.55
2018-03-21T01:52:24.142Z,15.73
2018-03-21T01:54:51.672Z,16.80
2018-03-21T01:57:19.177Z,20.37
2018-03-21T01:59:47.666Z,15.35
2018-03-21T02:02:15.288Z,19.73
2018-03-21T02:04:42.770Z,19.48
2018-03-21T02:07:10.284Z,17.40
2018-03-21T02:09:37.827Z,24.80
2018-03-21T02:12:06.094Z,17.60
2018-03-21T02:14:34.390Z,19.92
2018-03-21T02:17:01.902Z,18.55
2018-03-21T02:19:29.426Z,15.63
2018-03-21T02:21:56.946Z,16.05
2018-03-21T02:24:24.477Z,17.80
2018-03-21T02:26:51.985Z,14.95
2018-03-21T02:29:20.270Z,25.67
2018-03-21T02:31:47.779Z,17.27
2018-03-21T02:34:15.301Z,18.58
2018-03-21T02:36:42.810Z,13.10
2018-03-21T02:39:10.348Z,14.50
2018-03-21T02:41:37.850Z,20.45
2018-03-21T02:44:05.364Z,16.70
2018-03-21T02:46:32.890Z,15.30
2018-03-21T02:49:00.390Z,17.25
2018-03-21T02:51:27.932Z,17.20
2018-03-21T02:53:55.447Z,15.95
2018-03-21T02:56:23.742Z,17.55
2018-03-21T02:58:51.263Z,17.33
2018-03-21T03:01:18.786Z,25.58
2018-03-21T03:03:46.294Z,11.32
2018-03-21T03:06:14.592Z,15.88
2018-03-21T03:08:42.865Z,20.70
2018-03-21T03:11:11.284Z,20.02
2018-03-21T03:13:38.790Z,21.20
2018-03-21T03:16:06.315Z,23.85
2018-03-21T03:18:33.823Z,18.92
2018-03-21T03:21:02.107Z,13.25
2018-03-21T03:23:30.386Z,15.38
2018-03-21T03:25:57.912Z,11.93
2018-03-21T03:28:25.435Z,19.23
2018-03-21T03:30:52.971Z,12.15
2018-03-21T03:33:20.482Z,12.68
2018-03-21T03:35:48.019Z,18.90
2018-03-21T03:38:15.522Z,16.33
2018-03-21T03:40:43.058Z,17.92
2018-03-21T03:43:10.562Z,17.10
2018-03-21T03:45:38.866Z,14.10
2018-03-21T03:48:06.375Z,24.25
2018-03-21T03:50:33.893Z,20.10
2018-03-21T03:53:02.158Z,15.68
2018-03-21T03:55:29.677Z,17.20
2018-03-21T03:57:57.185Z,12.90
2018-03-21T04:00:24.705Z,17.67
2018-03-21T04:02:53.001Z,17.40
2018-03-21T04:05:20.530Z,21.00
2018-03-21T04:07:48.043Z,21.87
2018-03-21T04:10:15.573Z,20.23
2018-03-21T04:12:43.857Z,16.50
2018-03-21T04:15:12.142Z,23.92
2018-03-21T04:17:39.658Z,20.67
2018-03-21T04:20:07.162Z,21.30
2018-03-21T04:22:34.680Z,21.87
2018-03-21T04:25:02.190Z,18.45
2018-03-21T04:27:29.720Z,19.08
2018-03-21T04:29:57.227Z,18.20
2018-03-21T04:32:24.751Z,20.05
2018-03-21T04:34:53.053Z,22.25
2018-03-21T04:37:20.566Z,24.92
2018-03-21T04:39:48.066Z,20.42
2018-03-21T04:42:15.585Z,21.20
2018-03-21T04:44:43.110Z,14.77
2018-03-21T04:47:11.141Z,22.37
2018-03-21T04:49:39.411Z,27.83
2018-03-21T04:52:06.930Z,24.87
2018-03-21T04:54:34.431Z,24.98
2018-03-21T04:57:02.733Z,28.10
2018-03-21T04:59:30.238Z,24.92
2018-03-21T05:01:57.795Z,24.58
2018-03-21T05:04:25.300Z,23.00
2018-03-21T05:06:52.831Z,20.65
2018-03-21T05:09:20.345Z,21.73
2018-03-21T05:11:48.634Z,21.02
2018-03-21T05:14:17.054Z,15.65
2018-03-21T05:16:44.570Z,23.65
2018-03-21T05:19:12.083Z,17.33
2018-03-21T05:21:40.382Z,21.27
2018-03-21T05:24:07.900Z,17.52
2018-03-21T05:26:35.431Z,18.12
2018-03-21T05:29:02.934Z,22.50
2018-03-21T05:31:32.176Z,23.10
2018-03-21T05:33:59.696Z,18.02
2018-03-21T05:36:27.982Z,20.05
2018-03-21T05:38:56.259Z,24.55
2018-03-21T05:41:24.543Z,19.92
2018-03-21T05:43:52.058Z,27.90
2018-03-21T05:46:19.597Z,25.12
2018-03-21T05:48:47.093Z,16.92
2018-03-21T05:51:15.447Z,24.65
2018-03-21T05:53:42.975Z,21.45
2018-03-21T05:56:10.486Z,28.87
2018-03-21T05:58:38.015Z,22.23
2018-03-21T06:01:05.518Z,24.10
2018-03-21T06:03:33.033Z,37.17
2018-03-21T06:06:00.550Z,24.52
2018-03-21T06:08:28.082Z,26.52
2018-03-21T06:10:55.596Z,26.90
2018-03-21T06:13:23.122Z,26.83
2018-03-21T06:15:50.633Z,30.33
2018-03-21T06:18:18.154Z,27.73
2018-03-21T06:20:46.428Z,29.12
2018-03-21T06:23:14.723Z,26.75
2018-03-21T06:25:42.242Z,44.75
2018-03-21T06:28:09.770Z,29.17
2018-03-21T06:30:37.287Z,31.30
2018-03-21T06:33:05.566Z,31.80
2018-03-21T06:35:33.844Z,33.75
2018-03-21T06:38:02.156Z,30.33
2018-03-21T06:40:29.685Z,29.10
2018-03-21T06:42:57.975Z,34.13
2018-03-21T06:45:26.023Z,29.55
2018-03-21T06:47:54.315Z,30.37
2018-03-21T06:50:22.590Z,29.40
2018-03-21T06:52:50.880Z,27.05
2018-03-21T06:55:18.394Z,42.53
2018-03-21T06:57:45.934Z,30.67
2018-03-21T07:00:13.443Z,31.75
2018-03-21T07:02:41.746Z,37.92
2018-03-21T07:05:09.254Z,23.90
2018-03-21T07:07:36.787Z,32.03
2018-03-21T07:10:04.297Z,28.40
2018-03-21T07:12:32.595Z,26.23
2018-03-21T07:15:11.821Z,38.35
2018-03-21T07:17:39.347Z,23.15
2018-03-21T07:20:07.655Z,24.67
2018-03-21T07:22:35.942Z,31.17
2018-03-21T07:25:03.454Z,23.25
2018-03-21T07:27:30.983Z,32.25
2018-03-21T07:29:58.494Z,28.58
2018-03-21T07:32:27.526Z,21.92
2018-03-21T07:34:55.039Z,25.00
2018-03-21T07:37:22.562Z,23.77
2018-03-21T07:39:50.073Z,22.92
2018-03-21T07:42:18.355Z,17.73
2018-03-21T07:44:46.641Z,19.65
2018-03-21T07:47:14.150Z,16.50
2018-03-21T07:49:41.690Z,20.62
2018-03-21T07:52:09.208Z,18.70
2018-03-21T07:54:37.516Z,16.85
2018-03-21T07:57:05.056Z,17.50
2018-03-21T07:59:33.350Z,15.48
2018-03-21T08:02:00.868Z,24.30
2018-03-21T08:04:32.356Z,21.20
2018-03-21T08:06:59.885Z,18.37
2018-03-21T08:09:28.184Z,24.37
2018-03-21T08:11:56.466Z,23.90
2018-03-21T08:14:24.764Z,20.85
2018-03-21T08:16:52.275Z,30.37
2018-03-21T08:19:19.800Z,12.57
2018-03-21T08:21:47.315Z,12.02
2018-03-21T08:24:15.610Z,10.20
2018-03-21T08:26:43.124Z,15.45
2018-03-21T08:29:10.648Z,12.63
2018-03-21T08:31:38.158Z,11.15
2018-03-21T08:34:06.445Z,11.95
2018-03-21T08:36:34.707Z,9.10
2018-03-21T08:39:02.223Z,12.20
2018-03-21T08:41:29.726Z,8.27
2018-03-21T08:43:57.254Z,9.48
2018-03-21T08:46:24.760Z,8.57
2018-03-21T08:48:53.043Z,12.57
2018-03-21T08:51:21.319Z,11.05
2018-03-21T08:53:49.607Z,7.30
2018-03-21T08:56:17.103Z,7.97
2018-03-21T08:58:44.616Z,9.65
2018-03-21T09:01:12.891Z,15.18
2018-03-21T09:03:41.209Z,12.52
2018-03-21T09:06:08.719Z,12.30
2018-03-21T09:08:37.755Z,13.48
2018-03-21T09:11:05.267Z,9.70
2018-03-21T09:13:32.829Z,7.18
2018-03-21T09:16:00.341Z,8.77
2018-03-21T09:18:27.849Z,13.68
2018-03-21T09:20:56.142Z,19.30
2018-03-21T09:23:24.460Z,13.88
2018-03-21T09:25:52.711Z,11.70
2018-03-21T09:28:20.213Z,14.63
2018-03-21T09:30:47.726Z,12.82
2018-03-21T09:33:15.998Z,12.90
2018-03-21T09:35:44.292Z,12.77
2018-03-21T09:38:11.803Z,12.60
2018-03-21T09:40:39.324Z,10.63
2018-03-21T09:43:06.830Z,10.85
2018-03-21T09:45:34.343Z,13.27
2018-03-21T09:48:01.855Z,10.85
2018-03-21T09:50:29.375Z,10.57
2018-03-21T09:52:56.878Z,9.30
2018-03-21T09:55:25.171Z,9.02
2018-03-21T09:57:53.445Z,9.23
2018-03-21T10:00:21.737Z,9.63
2018-03-21T10:02:49.237Z,6.72
2018-03-21T10:05:16.754Z,9.23
2018-03-21T10:07:45.041Z,11.05
2018-03-21T10:10:12.566Z,10.40
2018-03-21T10:12:40.074Z,5.95
2018-03-21T10:15:07.594Z,9.00
2018-03-21T10:17:35.874Z,7.87
2018-03-21T10:20:04.164Z,7.75
2018-03-21T10:22:31.667Z,8.05
2018-03-21T10:24:59.184Z,7.10
2018-03-21T10:27:27.460Z,4.53
2018-03-21T10:29:54.989Z,16.98
2018-03-21T10:32:22.482Z,6.35
2018-03-21T10:34:50.753Z,10.82
2018-03-21T10:37:18.275Z,4.30
2018-03-21T10:39:45.777Z,6.32
2018-03-21T10:42:14.074Z,6.50
2018-03-21T10:44:41.587Z,6.43
2018-03-21T10:47:09.111Z,6.62
2018-03-21T10:49:36.619Z,8.25
2018-03-21T10:52:04.912Z,7.28
2018-03-21T10:54:33.253Z,5.70
2018-03-21T10:57:00.731Z,8.18
2018-03-21T10:59:29.019Z,3.62
2018-03-21T11:02:02.959Z,6.03
2018-03-21T11:04:30.418Z,5.57
2018-03-21T11:06:57.933Z,6.68
2018-03-21T11:09:25.435Z,5.50
2018-03-21T11:11:53.202Z,3.45
2018-03-21T11:14:21.442Z,7.45
2018-03-21T11:16:49.718Z,4.00
2018-03-21T11:19:18.006Z,3.87
2018-03-21T11:21:46.299Z,4.10
2018-03-21T11:24:13.791Z,5.97
2018-03-21T11:26:41.303Z,4.07
2018-03-21T11:29:09.575Z,7.00
2018-03-21T11:31:37.854Z,8.77
2018-03-21T11:34:05.396Z,10.00
2018-03-21T11:36:33.678Z,7.87
2018-03-21T11:39:01.952Z,8.13
2018-03-21T11:41:30.247Z,8.57
2018-03-21T11:43:57.751Z,8.45
2018-03-21T11:46:25.280Z,7.45
2018-03-21T11:48:52.778Z,5.22
2018-03-21T11:51:20.292Z,10.82
2018-03-21T11:53:47.782Z,7.10
2018-03-21T11:56:15.294Z,6.30
2018-03-21T11:58:43.566Z,5.32
2018-03-21T12:01:11.870Z,3.60
2018-03-21T12:03:39.367Z,7.62
2018-03-21T12:06:06.862Z,5.50
2018-03-21T12:08:35.204Z,7.93
2018-03-21T12:11:03.418Z,5.35
2018-03-21T12:13:31.698Z,6.90
2018-03-21T12:15:59.962Z,4.07
2018-03-21T12:18:27.474Z,5.72
2018-03-21T12:20:54.981Z,4.57
2018-03-21T12:23:22.492Z,5.32
2018-03-21T12:25:50.754Z,6.35
2018-03-21T12:28:18.267Z,7.18
2018-03-21T12:30:45.770Z,6.47
2018-03-21T12:33:13.290Z,5.15
2018-03-21T12:35:40.782Z,5.18
2018-03-21T12:38:08.307Z,6.00
2018-03-21T12:40:36.782Z,6.50
2018-03-21T12:43:04.307Z,9.18
2018-03-21T12:45:31.802Z,6.22
2018-03-21T12:47:59.326Z,5.70
2018-03-21T12:50:26.827Z,5.25
2018-03-21T12:52:54.354Z,6.47
2018-03-21T12:55:21.846Z,7.55
2018-03-21T12:57:49.374Z,9.80
2018-03-21T13:00:16.872Z,7.60
2018-03-21T13:02:45.164Z,6.70
2018-03-21T13:05:13.444Z,12.50
2018-03-21T13:07:41.779Z,7.47
2018-03-21T13:10:09.238Z,8.35
2018-03-21T13:12:36.763Z,9.20
2018-03-21T13:15:04.262Z,5.50
2018-03-21T13:17:31.782Z,5.43
2018-03-21T13:19:59.279Z,6.35
2018-03-21T13:22:27.035Z,7.68
2018-03-21T13:24:54.530Z,4.93
2018-03-21T13:27:22.827Z,12.57
2018-03-21T13:29:51.104Z,8.18
2018-03-21T13:32:19.367Z,7.68
2018-03-21T13:34:48.403Z,9.32
2018-03-21T13:37:15.907Z,6.68
2018-03-21T13:39:43.433Z,7.80
2018-03-21T13:42:10.946Z,9.48
2018-03-21T13:44:39.234Z,8.68
2018-03-21T13:47:07.497Z,6.80
2018-03-21T13:49:35.792Z,9.43
2018-03-21T13:52:04.054Z,8.10
2018-03-21T13:54:31.563Z,9.45
2018-03-21T13:56:59.059Z,7.55
2018-03-21T13:59:26.574Z,4.62
2018-03-21T14:01:54.234Z,8.30
2018-03-21T14:04:21.758Z,7.60
2018-03-21T14:06:50.027Z,4.62
2018-03-21T14:09:17.540Z,5.62
2018-03-21T14:11:45.062Z,5.87
2018-03-21T14:14:13.353Z,12.13
2018-03-21T14:16:41.620Z,8.15
2018-03-21T14:19:09.894Z,9.55
2018-03-21T14:21:38.163Z,4.35
2018-03-21T14:24:06.460Z,5.37
2018-03-21T14:26:33.958Z,10.52
2018-03-21T14:29:01.470Z,5.80
2018-03-21T14:31:29.731Z,5.72
2018-03-21T14:33:58.020Z,4.00
2018-03-21T14:36:26.291Z,5.82
2018-03-21T14:38:53.806Z,5.78
2018-03-21T14:41:21.302Z,5.87
2018-03-21T14:43:48.815Z,5.12
2018-03-21T14:46:16.320Z,5.22
2018-03-21T14:48:43.843Z,5.68
2018-03-21T14:51:11.332Z,4.07
2018-03-21T14:53:38.845Z,6.10
2018-03-21T14:56:06.347Z,3.95
2018-03-21T14:58:33.858Z,7.32
2018-03-21T15:01:01.374Z,7.03
2018-03-21T15:03:28.888Z,6.07
2018-03-21T15:05:56.390Z,4.70
2018-03-21T15:08:23.912Z,4.70
2018-03-21T15:10:52.181Z,3.10
2018-03-21T15:13:19.688Z,3.37
2018-03-21T15:15:47.211Z,4.55
2018-03-21T15:18:15.469Z,4.45
2018-03-21T15:20:42.982Z,6.32
2018-03-21T15:23:10.475Z,3.90
2018-03-21T15:25:38.769Z,5.50
2018-03-21T15:28:07.182Z,3.20
2018-03-21T15:30:34.694Z,4.65
2018-03-21T15:33:02.959Z,7.70
2018-03-21T15:35:31.242Z,4.00
2018-03-21T15:37:58.762Z,3.60
2018-03-21T15:40:26.284Z,3.65
2018-03-21T15:42:53.787Z,2.70
2018-03-21T15:45:21.307Z,3.40
2018-03-21T15:47:48.810Z,6.32
2018-03-21T15:50:16.322Z,5.82
2018-03-21T15:52:43.817Z,5.15
2018-03-21T15:55:11.335Z,4.87
2018-03-21T15:57:38.850Z,6.60
2018-03-21T16:00:06.375Z,3.35
2018-03-21T16:02:34.636Z,5.85
2018-03-21T16:05:02.155Z,3.28
2018-03-21T16:07:29.650Z,7.68
2018-03-21T16:09:57.926Z,5.43
2018-03-21T16:12:25.436Z,4.78
2018-03-21T16:14:52.957Z,5.47
2018-03-21T16:17:20.446Z,5.07
2018-03-21T16:19:47.958Z,3.35
2018-03-21T16:22:15.470Z,9.00
2018-03-21T16:24:43.751Z,4.03
2018-03-21T16:27:11.274Z,4.43
2018-03-21T16:29:38.790Z,3.03
2018-03-21T16:32:06.290Z,5.25
2018-03-21T16:34:33.802Z,3.90
2018-03-21T16:37:01.295Z,2.58
2018-03-21T16:39:28.818Z,9.20
2018-03-21T16:41:57.078Z,3.97
2018-03-21T16:44:25.357Z,5.50
2018-03-21T16:46:53.617Z,5.97
2018-03-21T16:49:21.133Z,14.32
2018-03-21T16:51:48.647Z,4.65
2018-03-21T16:54:16.914Z,3.60
2018-03-21T16:56:44.429Z,4.80
2018-03-21T16:59:11.934Z,5.62
2018-03-21T17:01:39.469Z,5.70
2018-03-21T17:04:06.967Z,2.60
2018-03-21T17:06:35.259Z,2.47
2018-03-21T17:09:03.543Z,3.97
2018-03-21T17:11:31.066Z,4.40
2018-03-21T17:13:58.563Z,2.00
2018-03-21T17:16:26.079Z,3.25
2018-03-21T17:18:53.599Z,4.70
2018-03-21T17:21:21.111Z,2.55
2018-03-21T17:23:48.618Z,6.20
2018-03-21T17:26:16.128Z,3.37
2018-03-21T17:28:44.594Z,3.12
2018-03-21T17:31:12.119Z,3.90
2018-03-21T17:33:39.624Z,5.97
2018-03-21T17:36:07.147Z,2.53
2018-03-21T17:38:34.658Z,2.85
2018-03-21T17:41:02.938Z,3.47
2018-03-21T17:43:31.244Z,2.22
2018-03-21T17:45:58.776Z,11.82
2018-03-21T17:48:26.279Z,3.65
2018-03-21T17:50:53.792Z,2.75
2018-03-21T17:53:22.066Z,2.45
2018-03-21T17:55:49.579Z,5.78
2018-03-21T17:58:17.091Z,2.90
2018-03-21T18:00:45.369Z,2.92
2018-03-21T18:03:13.639Z,6.50
2018-03-21T18:05:41.927Z,4.45
2018-03-21T18:08:10.205Z,7.20
2018-03-21T18:10:38.482Z,3.08
2018-03-21T18:13:06.739Z,4.80
2018-03-21T18:15:34.259Z,5.28
2018-03-21T18:18:01.758Z,2.37
2018-03-21T18:20:29.272Z,5.70
2018-03-21T18:22:56.779Z,4.03
2018-03-21T18:25:24.284Z,6.65
2018-03-21T18:27:51.798Z,11.88
2018-03-21T18:30:19.287Z,6.30
2018-03-21T18:32:47.570Z,7.10
2018-03-21T18:35:15.064Z,6.80
2018-03-21T18:37:42.588Z,13.80
2018-03-21T18:40:10.087Z,7.28
2018-03-21T18:42:37.612Z,8.15
2018-03-21T18:45:05.112Z,7.07
2018-03-21T18:47:32.623Z,12.85
2018-03-21T18:50:00.898Z,15.00
2018-03-21T18:52:29.196Z,13.77
2018-03-21T18:54:56.704Z,6.15
2018-03-21T18:57:24.232Z,11.40
2018-03-21T18:59:51.742Z,7.50
2018-03-21T19:02:19.263Z,18.30
2018-03-21T19:04:46.767Z,7.12
2018-03-21T19:07:14.283Z,9.30
2018-03-21T19:09:41.786Z,9.63
2018-03-21T19:12:10.073Z,10.55
2018-03-21T19:14:38.343Z,6.75
2018-03-21T19:17:05.866Z,8.38
2018-03-21T19:19:33.380Z,15.70
2018-03-21T19:22:00.911Z,7.97
2018-03-21T19:24:28.424Z,6.32
2018-03-21T19:26:55.963Z,10.40
2018-03-21T19:29:23.466Z,9.23
2018-03-21T19:31:50.988Z,7.07
2018-03-21T19:34:18.519Z,7.18
2018-03-21T19:36:46.063Z,6.43
2018-03-21T19:39:13.599Z,11.27
2018-03-21T19:41:41.160Z,7.22
2018-03-21T19:44:08.666Z,14.35
2018-03-21T19:46:36.953Z,6.95
2018-03-21T19:49:04.543Z,12.00
2018-03-21T19:51:32.093Z,10.40
2018-03-21T19:53:59.680Z,8.07
2018-03-21T19:56:27.173Z,14.70
2018-03-21T19:58:55.551Z,15.10
2018-03-21T20:01:23.910Z,11.57
2018-03-21T20:03:51.527Z,20.55
2018-03-21T20:06:19.075Z,14.70
2018-03-21T20:08:47.395Z,10.10
2018-03-21T20:11:15.016Z,12.23
2018-03-21T20:13:42.579Z,7.32
2018-03-21T20:16:10.135Z,9.32
2018-03-21T20:18:38.460Z,7.15
2018-03-21T20:21:05.979Z,9.10
2018-03-21T20:23:33.543Z,5.62
2018-03-21T20:26:01.088Z,10.02
2018-03-21T20:28:28.658Z,7.85
2018-03-21T20:30:56.205Z,9.20
2018-03-21T20:33:24.568Z,8.23
2018-03-21T20:35:52.150Z,10.75
2018-03-21T20:38:20.495Z,10.55
2018-03-21T20:40:48.845Z,8.20
2018-03-21T20:43:16.456Z,11.70
2018-03-21T20:45:44.746Z,13.75
2018-03-21T20:48:13.076Z,7.78
2018-03-21T20:50:40.606Z,10.02
2018-03-21T20:53:08.209Z,10.35
2018-03-21T20:55:35.790Z,6.45
2018-03-21T20:58:04.180Z,12.65
2018-03-21T21:00:32.510Z,8.27
2018-03-21T21:03:00.063Z,8.57
2018-03-21T21:05:27.636Z,7.90
2018-03-21T21:07:55.186Z,8.05
2018-03-21T21:10:22.776Z,8.68
2018-03-21T21:12:50.307Z,7.47
2018-03-21T21:15:17.912Z,8.27
2018-03-21T21:17:45.495Z,7.10
2018-03-21T21:20:13.818Z,7.65
2018-03-21T21:22:41.399Z,5.10
2018-03-21T21:25:08.944Z,10.07
2018-03-21T21:27:36.547Z,6.80
2018-03-21T21:30:04.854Z,37.20
2018-03-21T21:32:33.205Z,11.68
2018-03-21T21:35:01.523Z,18.70
2018-03-21T21:37:29.064Z,15.60
2018-03-21T21:39:57.435Z,9.82
2018-03-21T21:42:25.719Z,8.30
2018-03-21T21:44:53.292Z,9.30
2018-03-21T21:47:20.902Z,7.50
2018-03-21T21:49:48.479Z,8.93
2018-03-21T21:52:16.851Z,10.07
2018-03-21T21:54:44.383Z,11.73
2018-03-21T21:57:11.971Z,15.45
2018-03-21T21:59:39.498Z,8.45
2018-03-21T22:02:07.065Z,9.38
2018-03-21T22:04:34.638Z,11.45
2018-03-21T22:07:02.211Z,6.18
2018-03-21T22:09:29.804Z,8.07
2018-03-21T22:11:57.342Z,8.30
2018-03-21T22:14:24.880Z,9.85
2018-03-21T22:16:52.505Z,17.67
2018-03-21T22:19:20.088Z,8.68
2018-03-21T22:21:47.713Z,8.38
2018-03-21T22:24:16.058Z,10.32
2018-03-21T22:26:43.608Z,7.00
2018-03-21T22:29:11.193Z,8.07
2018-03-21T22:31:39.603Z,8.70
2018-03-21T22:34:07.927Z,9.32
2018-03-21T22:36:35.607Z,9.50
2018-03-21T22:39:03.185Z,12.73
2018-03-21T22:41:31.550Z,7.47
2018-03-21T22:43:59.877Z,8.98
2018-03-21T22:46:27.468Z,14.85
2018-03-21T22:48:55.092Z,8.80
2018-03-21T22:51:22.650Z,6.87
2018-03-21T22:53:50.271Z,11.38
2018-03-21T22:56:18.660Z,7.03
2018-03-21T22:58:47.095Z,8.93
2018-03-21T23:01:14.702Z,8.57
2018-03-21T23:03:42.338Z,6.87
2018-03-21T23:06:09.995Z,6.75
2018-03-21T23:08:37.626Z,20.90
2018-03-21T23:11:05.249Z,9.35
2018-03-21T23:13:32.871Z,7.43
2018-03-21T23:16:01.154Z,5.60
2018-03-21T23:18:28.713Z,6.30
2018-03-21T23:20:56.268Z,6.43
2018-03-21T23:23:23.824Z,4.90
2018-03-21T23:25:51.381Z,6.82
2018-03-21T23:28:19.786Z,17.27
2018-03-21T23:30:47.391Z,11.10
2018-03-21T23:33:15.012Z,5.87
2018-03-21T23:35:42.633Z,3.92
2018-03-21T23:38:10.248Z,4.43
2018-03-21T23:40:37.811Z,7.03
2018-03-21T23:43:05.468Z,8.57
2018-03-21T23:45:33.062Z,5.03
2018-03-21T23:48:00.644Z,10.93
2018-03-21T23:50:28.282Z,9.05
2018-03-21T23:52:56.619Z,6.62
2018-03-21T23:55:24.183Z,6.47
2018-03-21T23:57:51.775Z,10.75
